LIPB

Bolzano Airport

Airport
ICAO code
LIPB
IATA Code
BZO
Summary
ICAO Region
EUR
ICAO Territory
Location

St Jakob, South Tyrol

Serving
Bolzano
Elevation
787 ft
Coordinates
46° 27' 36" N , 11° 19' 34" E
KCC
Metar
Observation
LIPB 031850Z VRB02KT CAVOK 06/M02 Q1022
Station
Bolzano
Date/Time
2023-02-03 19:50:00
Wind speed
02 kts
Lowest cloud amount
clouds and visibility OK
Temperature
6°C
Dew point
-2°C
Humidity
56%
QNH
1022 hPa
Weather condition
n/a

Bolzano Airport is a small regional airport near Bolzano in the province of South Tyrol in northern Italy.

Climatology

Humid subtropical climate (Köppen climate classification Cfa)

Runways

Designator Length Width Surface Rops
01R/19L 698 20 GRS No/No
1/19 1297 30 ASP No/No

Airport map

Aerial View

SKYbrary Partners:

Safety knowledge contributed by: